sensor_id;sensor_type;location;lat;lon;timestamp;pressure;altitude;pressure_sealevel;temperature
65316;BMP280;51920;53.952;10.292;2023-09-30T00:00:45;101612.03;;;12.32
65316;BMP280;51920;53.952;10.292;2023-09-30T00:03:12;101616.69;;;12.32
65316;BMP280;51920;53.952;10.292;2023-09-30T00:05:39;101622.13;;;12.32
65316;BMP280;51920;53.952;10.292;2023-09-30T00:08:05;101619.81;;;12.34
65316;BMP280;51920;53.952;10.292;2023-09-30T00:10:33;101633.81;;;12.36
65316;BMP280;51920;53.952;10.292;2023-09-30T00:12:59;101626.72;;;12.28
65316;BMP280;51920;53.952;10.292;2023-09-30T00:15:29;101643.03;;;12.28
65316;BMP280;51920;53.952;10.292;2023-09-30T00:17:56;101636.34;;;12.21
65316;BMP280;51920;53.952;10.292;2023-09-30T00:20:23;101639.47;;;12.23
65316;BMP280;51920;53.952;10.292;2023-09-30T00:22:49;101616.31;;;12.03
65316;BMP280;51920;53.952;10.292;2023-09-30T00:25:16;101646.38;;;12.17
65316;BMP280;51920;53.952;10.292;2023-09-30T00:27:42;101649.09;;;12.17
65316;BMP280;51920;53.952;10.292;2023-09-30T00:30:09;101643.16;;;12.08
65316;BMP280;51920;53.952;10.292;2023-09-30T00:32:36;101649.00;;;12.10
65316;BMP280;51920;53.952;10.292;2023-09-30T00:35:03;101652.44;;;12.07
65316;BMP280;51920;53.952;10.292;2023-09-30T00:37:30;101653.13;;;12.04
65316;BMP280;51920;53.952;10.292;2023-09-30T00:39:56;101651.97;;;12.01
65316;BMP280;51920;53.952;10.292;2023-09-30T00:42:23;101657.34;;;11.98
65316;BMP280;51920;53.952;10.292;2023-09-30T00:44:51;101657.34;;;11.98
65316;BMP280;51920;53.952;10.292;2023-09-30T00:47:17;101649.50;;;11.93
65316;BMP280;51920;53.952;10.292;2023-09-30T00:49:44;101649.50;;;11.93
65316;BMP280;51920;53.952;10.292;2023-09-30T00:52:11;101642.38;;;11.85
65316;BMP280;51920;53.952;10.292;2023-09-30T00:54:39;101658.31;;;11.86
65316;BMP280;51920;53.952;10.292;2023-09-30T00:57:06;101653.25;;;11.85
65316;BMP280;51920;53.952;10.292;2023-09-30T00:59:33;101661.34;;;11.81
65316;BMP280;51920;53.952;10.292;2023-09-30T01:02:01;101651.53;;;11.73
65316;BMP280;51920;53.952;10.292;2023-09-30T01:04:28;101667.88;;;11.76
65316;BMP280;51920;53.952;10.292;2023-09-30T01:06:55;101652.16;;;11.66
65316;BMP280;51920;53.952;10.292;2023-09-30T01:09:26;101664.69;;;11.74
65316;BMP280;51920;53.952;10.292;2023-09-30T01:11:54;101661.16;;;11.70
65316;BMP280;51920;53.952;10.292;2023-09-30T01:14:28;101661.16;;;11.70
65316;BMP280;51920;53.952;10.292;2023-09-30T01:16:56;101667.00;;;11.72
65316;BMP280;51920;53.952;10.292;2023-09-30T01:19:22;101655.63;;;11.63
65316;BMP280;51920;53.952;10.292;2023-09-30T01:21:54;101670.56;;;11.76
65316;BMP280;51920;53.952;10.292;2023-09-30T01:24:30;101671.00;;;11.78
65316;BMP280;51920;53.952;10.292;2023-09-30T01:26:57;101653.50;;;11.76
65316;BMP280;51920;53.952;10.292;2023-09-30T01:29:24;101672.34;;;11.92
65316;BMP280;51920;53.952;10.292;2023-09-30T01:31:52;101660.25;;;11.86
65316;BMP280;51920;53.952;10.292;2023-09-30T01:34:21;101667.81;;;11.96
65316;BMP280;51920;53.952;10.292;2023-09-30T01:36:48;101663.09;;;11.93
65316;BMP280;51920;53.952;10.292;2023-09-30T01:39:15;101665.44;;;11.94
65316;BMP280;51920;53.952;10.292;2023-09-30T01:41:42;101664.66;;;11.97
65316;BMP280;51920;53.952;10.292;2023-09-30T01:44:09;101659.31;;;12.01
65316;BMP280;51920;53.952;10.292;2023-09-30T01:46:35;101669.66;;;11.92
65316;BMP280;51920;53.952;10.292;2023-09-30T01:49:03;101660.31;;;11.89
65316;BMP280;51920;53.952;10.292;2023-09-30T01:51:32;101675.06;;;11.92
65316;BMP280;51920;53.952;10.292;2023-09-30T01:53:59;101665.38;;;11.91
65316;BMP280;51920;53.952;10.292;2023-09-30T01:56:25;101653.25;;;11.85
65316;BMP280;51920;53.952;10.292;2023-09-30T01:58:52;101660.72;;;11.91
65316;BMP280;51920;53.952;10.292;2023-09-30T02:01:19;101669.97;;;11.87
65316;BMP280;51920;53.952;10.292;2023-09-30T02:03:46;101681.97;;;11.86
65316;BMP280;51920;53.952;10.292;2023-09-30T02:06:14;101685.81;;;11.85
65316;BMP280;51920;53.952;10.292;2023-09-30T02:08:41;101683.09;;;11.85
65316;BMP280;51920;53.952;10.292;2023-09-30T02:11:08;101674.53;;;11.82
65316;BMP280;51920;53.952;10.292;2023-09-30T02:13:35;101683.41;;;11.79
65316;BMP280;51920;53.952;10.292;2023-09-30T02:16:01;101687.72;;;11.80
65316;BMP280;51920;53.952;10.292;2023-09-30T02:18:28;101689.28;;;11.81
65316;BMP280;51920;53.952;10.292;2023-09-30T02:20:55;101692.06;;;11.85
65316;BMP280;51920;53.952;10.292;2023-09-30T02:23:22;101686.63;;;11.85
65316;BMP280;51920;53.952;10.292;2023-09-30T02:25:49;101693.16;;;11.80
65316;BMP280;51920;53.952;10.292;2023-09-30T02:28:15;101695.19;;;11.87
65316;BMP280;51920;53.952;10.292;2023-09-30T02:30:42;101685.81;;;11.85
65316;BMP280;51920;53.952;10.292;2023-09-30T02:33:08;101678.03;;;11.83
65316;BMP280;51920;53.952;10.292;2023-09-30T02:35:35;101685.13;;;11.88
65316;BMP280;51920;53.952;10.292;2023-09-30T02:38:05;101688.22;;;11.90
65316;BMP280;51920;53.952;10.292;2023-09-30T02:40:34;101694.53;;;11.97
65316;BMP280;51920;53.952;10.292;2023-09-30T02:43:01;101680.47;;;11.88
65316;BMP280;51920;53.952;10.292;2023-09-30T02:45:27;101684.03;;;11.92
65316;BMP280;51920;53.952;10.292;2023-09-30T02:47:54;101677.25;;;11.82
65316;BMP280;51920;53.952;10.292;2023-09-30T02:50:20;101696.78;;;11.92
65316;BMP280;51920;53.952;10.292;2023-09-30T02:52:47;101697.22;;;11.94
65316;BMP280;51920;53.952;10.292;2023-09-30T02:55:16;101692.19;;;11.92
65316;BMP280;51920;53.952;10.292;2023-09-30T02:57:43;101683.66;;;11.94
65316;BMP280;51920;53.952;10.292;2023-09-30T03:00:10;101692.25;;;11.96
65316;BMP280;51920;53.952;10.292;2023-09-30T03:02:57;101694.97;;;11.96
65316;BMP280;51920;53.952;10.292;2023-09-30T03:05:24;101711.59;;;11.94
65316;BMP280;51920;53.952;10.292;2023-09-30T03:07:50;101705.38;;;11.94
65316;BMP280;51920;53.952;10.292;2023-09-30T03:10:18;101703.34;;;11.87
65316;BMP280;51920;53.952;10.292;2023-09-30T03:12:50;101709.25;;;11.93
65316;BMP280;51920;53.952;10.292;2023-09-30T03:15:17;101704.53;;;11.90
65316;BMP280;51920;53.952;10.292;2023-09-30T03:17:45;101714.31;;;11.94
65316;BMP280;51920;53.952;10.292;2023-09-30T03:20:12;101702.19;;;11.88
65316;BMP280;51920;53.952;10.292;2023-09-30T03:22:42;101714.56;;;11.86
65316;BMP280;51920;53.952;10.292;2023-09-30T03:25:10;101720.03;;;11.89
65316;BMP280;51920;53.952;10.292;2023-09-30T03:27:38;101711.50;;;11.87
65316;BMP280;51920;53.952;10.292;2023-09-30T03:30:06;101718.75;;;11.83
65316;BMP280;51920;53.952;10.292;2023-09-30T03:32:33;101712.97;;;11.85
65316;BMP280;51920;53.952;10.292;2023-09-30T03:35:00;101725.78;;;11.84
65316;BMP280;51920;53.952;10.292;2023-09-30T03:37:27;101715.66;;;11.81
65316;BMP280;51920;53.952;10.292;2023-09-30T03:39:54;101718.53;;;11.92
65316;BMP280;51920;53.952;10.292;2023-09-30T03:42:21;101717.56;;;11.80
65316;BMP280;51920;53.952;10.292;2023-09-30T03:44:48;101708.34;;;11.85
65316;BMP280;51920;53.952;10.292;2023-09-30T03:47:18;101706.75;;;11.84
65316;BMP280;51920;53.952;10.292;2023-09-30T03:49:45;101703.16;;;11.76
65316;BMP280;51920;53.952;10.292;2023-09-30T03:52:11;101716.84;;;11.83
65316;BMP280;51920;53.952;10.292;2023-09-30T03:54:39;101709.00;;;11.78
65316;BMP280;51920;53.952;10.292;2023-09-30T03:57:08;101712.00;;;11.73
65316;BMP280;51920;53.952;10.292;2023-09-30T03:59:34;101713.63;;;11.78
65316;BMP280;51920;53.952;10.292;2023-09-30T04:02:01;101714.09;;;11.80
65316;BMP280;51920;53.952;10.292;2023-09-30T04:04:27;101689.28;;;11.58
65316;BMP280;51920;53.952;10.292;2023-09-30T04:06:54;101693.63;;;11.63
65316;BMP280;51920;53.952;10.292;2023-09-30T04:09:21;101722.84;;;11.73
65316;BMP280;51920;53.952;10.292;2023-09-30T04:11:47;101720.81;;;11.67
65316;BMP280;51920;53.952;10.292;2023-09-30T04:14:14;101701.63;;;11.56
65316;BMP280;51920;53.952;10.292;2023-09-30T04:16:43;101725.19;;;11.71
65316;BMP280;51920;53.952;10.292;2023-09-30T04:19:11;101719.69;;;11.68
65316;BMP280;51920;53.952;10.292;2023-09-30T04:21:38;101717.75;;;11.68
65316;BMP280;51920;53.952;10.292;2023-09-30T04:24:05;101732.91;;;11.69
65316;BMP280;51920;53.952;10.292;2023-09-30T04:26:33;101736.03;;;11.71
65316;BMP280;51920;53.952;10.292;2023-09-30T04:28:59;101728.94;;;11.67
65316;BMP280;51920;53.952;10.292;2023-09-30T04:31:28;101731.44;;;11.75
65316;BMP280;51920;53.952;10.292;2023-09-30T04:33:55;101737.63;;;11.76
65316;BMP280;51920;53.952;10.292;2023-09-30T04:36:21;101734.81;;;11.69
65316;BMP280;51920;53.952;10.292;2023-09-30T04:38:49;101739.88;;;11.70
65316;BMP280;51920;53.952;10.292;2023-09-30T04:41:16;101741.47;;;11.71
65316;BMP280;51920;53.952;10.292;2023-09-30T04:43:42;101736.19;;;11.59
65316;BMP280;51920;53.952;10.292;2023-09-30T04:46:09;101727.91;;;11.52
65316;BMP280;51920;53.952;10.292;2023-09-30T04:48:39;101753.03;;;11.68
65316;BMP280;51920;53.952;10.292;2023-09-30T04:51:07;101742.13;;;11.65
65316;BMP280;51920;53.952;10.292;2023-09-30T04:53:34;101751.84;;;11.66
65316;BMP280;51920;53.952;10.292;2023-09-30T04:56:02;101744.56;;;11.73
65316;BMP280;51920;53.952;10.292;2023-09-30T04:58:30;101743.28;;;11.67
65316;BMP280;51920;53.952;10.292;2023-09-30T05:00:57;101747.91;;;11.63
65316;BMP280;51920;53.952;10.292;2023-09-30T05:03:23;101758.44;;;11.68
65316;BMP280;51920;53.952;10.292;2023-09-30T05:05:52;101755.31;;;11.66
65316;BMP280;51920;53.952;10.292;2023-09-30T05:08:20;101765.47;;;11.69
65316;BMP280;51920;53.952;10.292;2023-09-30T05:10:46;101763.88;;;11.68
65316;BMP280;51920;53.952;10.292;2023-09-30T05:13:14;101728.78;;;11.56
65316;BMP280;51920;53.952;10.292;2023-09-30T05:15:41;101753.16;;;11.75
65316;BMP280;51920;53.952;10.292;2023-09-30T05:18:08;101736.72;;;11.68
65316;BMP280;51920;53.952;10.292;2023-09-30T05:20:36;101753.56;;;11.77
65316;BMP280;51920;53.952;10.292;2023-09-30T05:23:03;101722.63;;;11.59
65316;BMP280;51920;53.952;10.292;2023-09-30T05:25:29;101759.00;;;11.77
65316;BMP280;51920;53.952;10.292;2023-09-30T05:27:56;101755.16;;;11.78
65316;BMP280;51920;53.952;10.292;2023-09-30T05:30:23;101762.69;;;11.89
65316;BMP280;51920;53.952;10.292;2023-09-30T05:32:50;101769.03;;;11.96
65316;BMP280;51920;53.952;10.292;2023-09-30T05:35:19;101743.88;;;11.76
65316;BMP280;51920;53.952;10.292;2023-09-30T05:37:52;101732.09;;;11.69
65316;BMP280;51920;53.952;10.292;2023-09-30T05:40:20;101758.81;;;11.90
65316;BMP280;51920;53.952;10.292;2023-09-30T05:42:53;101778.81;;;12.01
65316;BMP280;51920;53.952;10.292;2023-09-30T05:45:21;101784.16;;;11.97
65316;BMP280;51920;53.952;10.292;2023-09-30T05:47:49;101786.59;;;12.02
65316;BMP280;51920;53.952;10.292;2023-09-30T05:50:19;101792.47;;;12.04
65316;BMP280;51920;53.952;10.292;2023-09-30T05:52:51;101789.34;;;12.06
65316;BMP280;51920;53.952;10.292;2023-09-30T05:55:17;101767.41;;;11.92
65316;BMP280;51920;53.952;10.292;2023-09-30T05:57:50;101780.78;;;12.04
65316;BMP280;51920;53.952;10.292;2023-09-30T06:00:17;101778.50;;;12.06
65316;BMP280;51920;53.952;10.292;2023-09-30T06:02:48;101785.41;;;12.00
65316;BMP280;51920;53.952;10.292;2023-09-30T06:05:15;101782.31;;;12.01
65316;BMP280;51920;53.952;10.292;2023-09-30T06:07:42;101799.53;;;12.09
65316;BMP280;51920;53.952;10.292;2023-09-30T06:10:11;101811.66;;;12.15
65316;BMP280;51920;53.952;10.292;2023-09-30T06:12:38;101807.41;;;12.18
65316;BMP280;51920;53.952;10.292;2023-09-30T06:15:06;101792.25;;;11.94
65316;BMP280;51920;53.952;10.292;2023-09-30T06:17:33;101821.28;;;12.13
65316;BMP280;51920;53.952;10.292;2023-09-30T06:20:00;101830.34;;;12.20
65316;BMP280;51920;53.952;10.292;2023-09-30T06:22:45;101824.09;;;12.16
65316;BMP280;51920;53.952;10.292;2023-09-30T06:25:12;101837.16;;;12.34
65316;BMP280;51920;53.952;10.292;2023-09-30T06:27:46;101823.19;;;12.32
65316;BMP280;51920;53.952;10.292;2023-09-30T06:30:14;101844.84;;;12.51
65316;BMP280;51920;53.952;10.292;2023-09-30T06:32:43;101836.84;;;12.62
65316;BMP280;51920;53.952;10.292;2023-09-30T06:35:11;101840.44;;;12.70
65316;BMP280;51920;53.952;10.292;2023-09-30T06:37:41;101836.72;;;12.81
65316;BMP280;51920;53.952;10.292;2023-09-30T06:40:09;101836.94;;;12.96
65316;BMP280;51920;53.952;10.292;2023-09-30T06:42:38;101832.13;;;13.16
65316;BMP280;51920;53.952;10.292;2023-09-30T06:45:07;101848.38;;;13.39
65316;BMP280;51920;53.952;10.292;2023-09-30T06:47:39;101859.13;;;13.62
65316;BMP280;51920;53.952;10.292;2023-09-30T06:50:11;101851.19;;;13.87
65316;BMP280;51920;53.952;10.292;2023-09-30T06:52:40;101854.94;;;14.09
65316;BMP280;51920;53.952;10.292;2023-09-30T06:55:08;101869.44;;;14.20
65316;BMP280;51920;53.952;10.292;2023-09-30T06:57:36;101872.63;;;14.29
65316;BMP280;51920;53.952;10.292;2023-09-30T07:00:10;101865.97;;;14.23
65316;BMP280;51920;53.952;10.292;2023-09-30T07:02:38;101865.97;;;14.23
65316;BMP280;51920;53.952;10.292;2023-09-30T07:05:09;101844.03;;;14.09
65316;BMP280;51920;53.952;10.292;2023-09-30T07:07:36;101840.38;;;14.38
65316;BMP280;51920;53.952;10.292;2023-09-30T07:10:05;101864.63;;;14.51
65316;BMP280;51920;53.952;10.292;2023-09-30T07:12:32;101872.13;;;14.68
65316;BMP280;51920;53.952;10.292;2023-09-30T07:15:02;101871.03;;;14.80
65316;BMP280;51920;53.952;10.292;2023-09-30T07:17:29;101876.16;;;14.92
65316;BMP280;51920;53.952;10.292;2023-09-30T07:19:56;101865.72;;;15.01
65316;BMP280;51920;53.952;10.292;2023-09-30T07:22:23;101875.13;;;15.11
65316;BMP280;51920;53.952;10.292;2023-09-30T07:24:55;101867.34;;;15.20
65316;BMP280;51920;53.952;10.292;2023-09-30T07:27:22;101879.91;;;15.36
65316;BMP280;51920;53.952;10.292;2023-09-30T07:29:53;101865.84;;;15.37
65316;BMP280;51920;53.952;10.292;2023-09-30T07:32:19;101879.03;;;15.17
65316;BMP280;51920;53.952;10.292;2023-09-30T07:34:52;101895.50;;;15.46
65316;BMP280;51920;53.952;10.292;2023-09-30T07:37:18;101886.88;;;15.33
65316;BMP280;51920;53.952;10.292;2023-09-30T07:39:46;101888.56;;;15.66
65316;BMP280;51920;53.952;10.292;2023-09-30T07:42:13;101885.47;;;15.75
65316;BMP280;51920;53.952;10.292;2023-09-30T07:44:40;101894.78;;;15.63
65316;BMP280;51920;53.952;10.292;2023-09-30T07:47:06;101899.91;;;15.90
65316;BMP280;51920;53.952;10.292;2023-09-30T07:49:33;101892.47;;;15.73
65316;BMP280;51920;53.952;10.292;2023-09-30T07:52:00;101906.19;;;16.12
65316;BMP280;51920;53.952;10.292;2023-09-30T07:54:26;101910.09;;;16.04
65316;BMP280;51920;53.952;10.292;2023-09-30T07:56:56;101898.00;;;16.19
65316;BMP280;51920;53.952;10.292;2023-09-30T07:59:24;101904.25;;;16.20
65316;BMP280;51920;53.952;10.292;2023-09-30T08:01:51;101914.41;;;16.33
65316;BMP280;51920;53.952;10.292;2023-09-30T08:04:19;101894.06;;;16.17
65316;BMP280;51920;53.952;10.292;2023-09-30T08:06:46;101921.00;;;16.65
65316;BMP280;51920;53.952;10.292;2023-09-30T08:09:15;101922.22;;;16.49
65316;BMP280;51920;53.952;10.292;2023-09-30T08:11:44;101907.34;;;16.54
65316;BMP280;51920;53.952;10.292;2023-09-30T08:14:11;101917.03;;;16.98
65316;BMP280;51920;53.952;10.292;2023-09-30T08:16:38;101920.19;;;16.82
65316;BMP280;51920;53.952;10.292;2023-09-30T08:19:05;101916.31;;;16.79
65316;BMP280;51920;53.952;10.292;2023-09-30T08:21:31;101917.47;;;16.78
65316;BMP280;51920;53.952;10.292;2023-09-30T08:23:59;101915.84;;;16.95
65316;BMP280;51920;53.952;10.292;2023-09-30T08:26:25;101927.84;;;17.30
65316;BMP280;51920;53.952;10.292;2023-09-30T08:28:52;101914.31;;;17.72
65316;BMP280;51920;53.952;10.292;2023-09-30T08:31:19;101934.13;;;17.94
65316;BMP280;51920;53.952;10.292;2023-09-30T08:33:46;101937.19;;;18.03
65316;BMP280;51920;53.952;10.292;2023-09-30T08:36:12;101946.78;;;18.29
65316;BMP280;51920;53.952;10.292;2023-09-30T08:38:40;101938.75;;;18.90
65316;BMP280;51920;53.952;10.292;2023-09-30T08:41:07;101937.13;;;18.93
65316;BMP280;51920;53.952;10.292;2023-09-30T08:43:39;101942.75;;;19.43
65316;BMP280;51920;53.952;10.292;2023-09-30T08:46:06;101937.50;;;19.80
65316;BMP280;51920;53.952;10.292;2023-09-30T08:48:34;101946.69;;;19.69
65316;BMP280;51920;53.952;10.292;2023-09-30T08:51:02;101952.00;;;19.84
65316;BMP280;51920;53.952;10.292;2023-09-30T08:53:29;101947.84;;;19.72
65316;BMP280;51920;53.952;10.292;2023-09-30T08:55:57;101948.72;;;19.65
65316;BMP280;51920;53.952;10.292;2023-09-30T08:58:27;101951.78;;;19.98
65316;BMP280;51920;53.952;10.292;2023-09-30T09:00:55;101958.59;;;20.13
65316;BMP280;51920;53.952;10.292;2023-09-30T09:03:23;101945.34;;;20.28
65316;BMP280;51920;53.952;10.292;2023-09-30T09:05:56;101948.25;;;20.41
65316;BMP280;51920;53.952;10.292;2023-09-30T09:08:26;101957.06;;;20.52
65316;BMP280;51920;53.952;10.292;2023-09-30T09:10:55;101953.75;;;20.21
65316;BMP280;51920;53.952;10.292;2023-09-30T09:13:25;101953.06;;;21.17
65316;BMP280;51920;53.952;10.292;2023-09-30T09:16:10;101974.94;;;21.24
65316;BMP280;51920;53.952;10.292;2023-09-30T09:18:37;101964.19;;;21.29
65316;BMP280;51920;53.952;10.292;2023-09-30T09:21:12;101976.16;;;21.23
65316;BMP280;51920;53.952;10.292;2023-09-30T09:23:49;101971.09;;;21.01
65316;BMP280;51920;53.952;10.292;2023-09-30T09:26:23;101979.38;;;21.38
65316;BMP280;51920;53.952;10.292;2023-09-30T09:28:56;101975.69;;;21.93
65316;BMP280;51920;53.952;10.292;2023-09-30T09:31:26;101978.72;;;21.14
65316;BMP280;51920;53.952;10.292;2023-09-30T09:33:56;101981.63;;;21.43
65316;BMP280;51920;53.952;10.292;2023-09-30T09:36:42;101985.91;;;21.80
65316;BMP280;51920;53.952;10.292;2023-09-30T09:39:10;101963.81;;;21.80
65316;BMP280;51920;53.952;10.292;2023-09-30T09:41:54;101978.25;;;22.17
65316;BMP280;51920;53.952;10.292;2023-09-30T09:44:23;101955.16;;;21.29
65316;BMP280;51920;53.952;10.292;2023-09-30T09:46:51;101967.19;;;21.88
65316;BMP280;51920;53.952;10.292;2023-09-30T09:49:19;101980.66;;;21.49
65316;BMP280;51920;53.952;10.292;2023-09-30T09:51:48;101972.31;;;21.53
65316;BMP280;51920;53.952;10.292;2023-09-30T09:54:15;101975.69;;;21.77
65316;BMP280;51920;53.952;10.292;2023-09-30T09:56:46;101977.00;;;21.20
65316;BMP280;51920;53.952;10.292;2023-09-30T09:59:15;101972.78;;;21.84
65316;BMP280;51920;53.952;10.292;2023-09-30T10:01:42;101981.91;;;21.65
65316;BMP280;51920;53.952;10.292;2023-09-30T10:04:12;101968.28;;;21.74
65316;BMP280;51920;53.952;10.292;2023-09-30T10:06:43;101970.94;;;21.61
65316;BMP280;51920;53.952;10.292;2023-09-30T10:09:15;101974.44;;;20.73
65316;BMP280;51920;53.952;10.292;2023-09-30T10:11:45;101980.28;;;20.08
65316;BMP280;51920;53.952;10.292;2023-09-30T10:14:30;101973.00;;;19.43
65316;BMP280;51920;53.952;10.292;2023-09-30T10:16:57;101975.59;;;18.89
65316;BMP280;51920;53.952;10.292;2023-09-30T10:19:23;101976.66;;;19.02
65316;BMP280;51920;53.952;10.292;2023-09-30T10:24:56;101985.25;;;19.93
65316;BMP280;51920;53.952;10.292;2023-09-30T10:35:22;101976.34;;;19.85
65316;BMP280;51920;53.952;10.292;2023-09-30T10:40:55;101983.41;;;19.59
65316;BMP280;51920;53.952;10.292;2023-09-30T10:43:30;101979.22;;;19.17
65316;BMP280;51920;53.952;10.292;2023-09-30T10:46:00;101987.06;;;19.49
65316;BMP280;51920;53.952;10.292;2023-09-30T10:51:19;101991.06;;;19.10
65316;BMP280;51920;53.952;10.292;2023-09-30T10:53:52;101987.63;;;19.37
65316;BMP280;51920;53.952;10.292;2023-09-30T10:56:19;101982.50;;;19.35
65316;BMP280;51920;53.952;10.292;2023-09-30T10:58:47;101988.47;;;19.30
65316;BMP280;51920;53.952;10.292;2023-09-30T11:01:22;101981.69;;;19.08
65316;BMP280;51920;53.952;10.292;2023-09-30T11:03:50;101980.03;;;19.14
65316;BMP280;51920;53.952;10.292;2023-09-30T11:06:24;101989.63;;;18.98
65316;BMP280;51920;53.952;10.292;2023-09-30T11:08:53;101984.72;;;19.17
65316;BMP280;51920;53.952;10.292;2023-09-30T11:14:16;101991.47;;;19.09
65316;BMP280;51920;53.952;10.292;2023-09-30T11:16:43;101989.88;;;19.11
65316;BMP280;51920;53.952;10.292;2023-09-30T11:19:11;101989.44;;;18.82
65316;BMP280;51920;53.952;10.292;2023-09-30T11:21:42;101986.03;;;19.05
65316;BMP280;51920;53.952;10.292;2023-09-30T11:24:10;101982.69;;;18.90
65316;BMP280;51920;53.952;10.292;2023-09-30T11:26:38;101991.31;;;18.89
65316;BMP280;51920;53.952;10.292;2023-09-30T11:29:10;101976.00;;;18.88
65316;BMP280;51920;53.952;10.292;2023-09-30T11:31:38;101970.41;;;18.61
65316;BMP280;51920;53.952;10.292;2023-09-30T11:34:05;101975.81;;;18.71
65316;BMP280;51920;53.952;10.292;2023-09-30T11:36:38;101980.22;;;18.62
65316;BMP280;51920;53.952;10.292;2023-09-30T11:39:05;101992.97;;;18.79
65316;BMP280;51920;53.952;10.292;2023-09-30T11:41:36;101982.03;;;19.13
65316;BMP280;51920;53.952;10.292;2023-09-30T11:44:10;101976.81;;;19.22
65316;BMP280;51920;53.952;10.292;2023-09-30T11:46:59;101983.81;;;19.27
65316;BMP280;51920;53.952;10.292;2023-09-30T11:49:35;101979.34;;;19.06
65316;BMP280;51920;53.952;10.292;2023-09-30T11:52:04;101992.91;;;19.20
65316;BMP280;51920;53.952;10.292;2023-09-30T11:54:41;101990.81;;;19.32
65316;BMP280;51920;53.952;10.292;2023-09-30T11:57:16;101985.50;;;19.48
65316;BMP280;51920;53.952;10.292;2023-09-30T11:59:44;101986.59;;;19.54
65316;BMP280;51920;53.952;10.292;2023-09-30T12:02:12;101982.03;;;19.71
65316;BMP280;51920;53.952;10.292;2023-09-30T12:04:42;101979.16;;;19.82
65316;BMP280;51920;53.952;10.292;2023-09-30T12:07:10;101980.09;;;19.95
65316;BMP280;51920;53.952;10.292;2023-09-30T12:09:37;101995.13;;;19.87
65316;BMP280;51920;53.952;10.292;2023-09-30T12:12:04;101985.00;;;19.84
65316;BMP280;51920;53.952;10.292;2023-09-30T12:14:31;101975.69;;;19.74
65316;BMP280;51920;53.952;10.292;2023-09-30T12:16:58;101979.72;;;19.39
65316;BMP280;51920;53.952;10.292;2023-09-30T12:19:25;101973.44;;;19.38
65316;BMP280;51920;53.952;10.292;2023-09-30T12:21:52;101967.22;;;19.34
65316;BMP280;51920;53.952;10.292;2023-09-30T12:24:19;101963.47;;;19.52
65316;BMP280;51920;53.952;10.292;2023-09-30T12:26:49;101977.34;;;19.41
65316;BMP280;51920;53.952;10.292;2023-09-30T12:29:16;101961.97;;;19.16
65316;BMP280;51920;53.952;10.292;2023-09-30T12:31:44;101970.00;;;19.00
65316;BMP280;51920;53.952;10.292;2023-09-30T12:34:17;101967.66;;;18.98
65316;BMP280;51920;53.952;10.292;2023-09-30T12:36:44;101964.13;;;18.98
65316;BMP280;51920;53.952;10.292;2023-09-30T12:39:11;101966.69;;;18.81
65316;BMP280;51920;53.952;10.292;2023-09-30T12:41:39;101963.94;;;18.81
65316;BMP280;51920;53.952;10.292;2023-09-30T12:44:07;101966.41;;;18.72
65316;BMP280;51920;53.952;10.292;2023-09-30T12:46:34;101974.28;;;18.67
65316;BMP280;51920;53.952;10.292;2023-09-30T12:49:07;101974.38;;;18.56
65316;BMP280;51920;53.952;10.292;2023-09-30T12:51:34;101976.00;;;18.50
65316;BMP280;51920;53.952;10.292;2023-09-30T12:54:01;101973.38;;;18.35
65316;BMP280;51920;53.952;10.292;2023-09-30T12:56:27;101974.59;;;18.31
65316;BMP280;51920;53.952;10.292;2023-09-30T12:58:58;101979.28;;;18.34
65316;BMP280;51920;53.952;10.292;2023-09-30T13:01:26;101973.38;;;18.35
65316;BMP280;51920;53.952;10.292;2023-09-30T13:03:55;101973.75;;;18.38
65316;BMP280;51920;53.952;10.292;2023-09-30T13:06:21;101965.88;;;18.40
65316;BMP280;51920;53.952;10.292;2023-09-30T13:08:48;101956.91;;;18.35
65316;BMP280;51920;53.952;10.292;2023-09-30T13:11:15;101963.38;;;18.56
65316;BMP280;51920;53.952;10.292;2023-09-30T13:13:41;101956.00;;;18.53
65316;BMP280;51920;53.952;10.292;2023-09-30T13:16:10;101963.38;;;18.59
65316;BMP280;51920;53.952;10.292;2023-09-30T13:18:38;101957.22;;;18.45
65316;BMP280;51920;53.952;10.292;2023-09-30T13:21:05;101968.19;;;18.45
65316;BMP280;51920;53.952;10.292;2023-09-30T13:23:35;101966.72;;;18.36
65316;BMP280;51920;53.952;10.292;2023-09-30T13:26:02;101957.38;;;18.27
65316;BMP280;51920;53.952;10.292;2023-09-30T13:28:29;101961.34;;;18.22
65316;BMP280;51920;53.952;10.292;2023-09-30T13:30:56;101962.88;;;18.27
65316;BMP280;51920;53.952;10.292;2023-09-30T13:33:23;101971.88;;;18.27
65316;BMP280;51920;53.952;10.292;2023-09-30T13:35:49;101961.75;;;18.21
65316;BMP280;51920;53.952;10.292;2023-09-30T13:38:16;101970.06;;;18.10
65316;BMP280;51920;53.952;10.292;2023-09-30T13:40:43;101967.31;;;18.06
65316;BMP280;51920;53.952;10.292;2023-09-30T13:43:10;101961.84;;;18.10
65316;BMP280;51920;53.952;10.292;2023-09-30T13:45:36;101961.88;;;18.03
65316;BMP280;51920;53.952;10.292;2023-09-30T13:48:03;101943.59;;;17.89
65316;BMP280;51920;53.952;10.292;2023-09-30T13:50:31;101945.50;;;17.96
65316;BMP280;51920;53.952;10.292;2023-09-30T13:52:57;101951.34;;;17.98
65316;BMP280;51920;53.952;10.292;2023-09-30T13:55:27;101952.13;;;17.98
65316;BMP280;51920;53.952;10.292;2023-09-30T13:57:53;101947.50;;;17.88
65316;BMP280;51920;53.952;10.292;2023-09-30T14:00:20;101961.88;;;18.03
65316;BMP280;51920;53.952;10.292;2023-09-30T14:02:47;101956.81;;;18.05
65316;BMP280;51920;53.952;10.292;2023-09-30T14:05:14;101965.44;;;18.00
65316;BMP280;51920;53.952;10.292;2023-09-30T14:07:41;101971.69;;;18.04
65316;BMP280;51920;53.952;10.292;2023-09-30T14:10:08;101957.63;;;17.98